createdAt,value
2022-11-12T00:01:47.350Z,8.04
2022-11-12T00:04:38.945Z,8.02
2022-11-12T00:07:30.565Z,7.96
2022-11-12T00:10:22.607Z,7.94
2022-11-12T00:13:17.563Z,7.96
2022-11-12T00:16:10.458Z,7.91
2022-11-12T00:19:02.664Z,7.90
2022-11-12T00:21:54.105Z,7.90
2022-11-12T00:24:45.355Z,7.92
2022-11-12T00:27:37.103Z,7.87
2022-11-12T00:30:28.446Z,7.88
2022-11-12T00:33:22.382Z,7.87
2022-11-12T00:36:13.888Z,7.87
2022-11-12T00:39:06.334Z,7.87
2022-11-12T00:41:57.641Z,7.89
2022-11-12T00:44:49.928Z,7.94
2022-11-12T00:47:40.922Z,7.96
2022-11-12T00:50:32.345Z,7.99
2022-11-12T00:53:23.375Z,8.01
2022-11-12T00:56:14.936Z,8.04
2022-11-12T00:59:06.737Z,8.03
2022-11-12T01:01:58.040Z,8.04
2022-11-12T01:04:49.587Z,8.02
2022-11-12T01:07:40.700Z,8.00
2022-11-12T01:10:31.852Z,7.98
2022-11-12T01:13:22.944Z,7.97
2022-11-12T01:16:17.173Z,7.96
2022-11-12T01:19:10.412Z,7.94
2022-11-12T01:22:01.801Z,7.90
2022-11-12T01:24:53.307Z,7.91
2022-11-12T01:27:44.668Z,7.91
2022-11-12T01:30:36.204Z,7.92
2022-11-12T01:33:27.768Z,7.92
2022-11-12T01:36:19.709Z,7.93
2022-11-12T01:39:11.432Z,7.94
2022-11-12T01:42:03.162Z,7.94
2022-11-12T01:44:55.161Z,7.94
2022-11-12T01:47:48.486Z,7.97
2022-11-12T01:50:42.500Z,7.99
2022-11-12T01:53:36.545Z,8.00
2022-11-12T01:56:30.523Z,8.06
2022-11-12T01:59:26.396Z,8.01
2022-11-12T02:02:17.900Z,8.01
2022-11-12T02:05:12.214Z,7.99
2022-11-12T02:08:04.122Z,8.03
2022-11-12T02:10:56.076Z,8.05
2022-11-12T02:14:02.308Z,8.05
2022-11-12T02:16:54.261Z,8.08
2022-11-12T02:19:46.819Z,8.07
2022-11-12T02:22:37.805Z,8.09
2022-11-12T02:25:30.094Z,8.13
2022-11-12T02:28:21.897Z,8.13
2022-11-12T02:31:13.397Z,8.13
2022-11-12T02:34:04.787Z,8.16
2022-11-12T02:36:56.123Z,8.17
2022-11-12T02:39:47.630Z,8.18
2022-11-12T02:42:39.425Z,8.21
2022-11-12T02:45:32.201Z,8.24
2022-11-12T02:48:23.801Z,8.26
2022-11-12T02:51:15.326Z,8.30
2022-11-12T02:54:06.627Z,8.32
2022-11-12T02:56:57.739Z,8.36
2022-11-12T02:59:48.975Z,8.36
2022-11-12T03:02:42.174Z,8.38
2022-11-12T03:05:34.897Z,8.45
2022-11-12T03:08:27.126Z,8.41
2022-11-12T03:11:19.857Z,8.44
2022-11-12T03:14:11.807Z,8.44
2022-11-12T03:17:03.239Z,8.43
2022-11-12T03:19:54.589Z,8.43
2022-11-12T03:22:47.536Z,8.45
2022-11-12T03:25:39.474Z,8.47
2022-11-12T03:28:30.992Z,8.50
2022-11-12T03:31:22.048Z,8.51
2022-11-12T03:34:14.774Z,8.52
2022-11-12T03:37:08.130Z,8.53
2022-11-12T03:40:02.351Z,8.54
2022-11-12T03:42:53.983Z,8.53
2022-11-12T03:45:45.341Z,8.54
2022-11-12T03:48:37.337Z,8.57
2022-11-12T03:51:28.571Z,8.60
2022-11-12T03:54:20.247Z,8.58
2022-11-12T03:57:11.630Z,8.59
2022-11-12T04:00:03.250Z,8.56
2022-11-12T04:02:54.462Z,8.58
2022-11-12T04:06:03.441Z,8.57
2022-11-12T04:08:54.627Z,8.60
2022-11-12T04:11:45.890Z,8.60
2022-11-12T04:14:37.364Z,8.60
2022-11-12T04:17:46.414Z,8.62
2022-11-12T04:21:06.043Z,8.63
2022-11-12T04:23:57.396Z,8.66
2022-11-12T04:26:48.853Z,8.65
2022-11-12T04:29:57.159Z,8.67
2022-11-12T04:32:51.265Z,8.70
2022-11-12T04:35:42.797Z,8.73
2022-11-12T04:38:34.293Z,8.72
2022-11-12T04:41:42.696Z,8.73
2022-11-12T04:44:51.531Z,8.75
2022-11-12T04:47:44.300Z,8.73
2022-11-12T04:50:36.317Z,8.73
2022-11-12T04:53:28.168Z,8.78
2022-11-12T04:56:19.165Z,8.79
2022-11-12T04:59:10.886Z,8.80
2022-11-12T05:02:02.295Z,8.81
2022-11-12T05:04:53.755Z,8.85
2022-11-12T05:07:44.930Z,8.85
2022-11-12T05:10:36.665Z,8.88
2022-11-12T05:13:29.119Z,8.91
2022-11-12T05:16:20.583Z,8.88
2022-11-12T05:19:11.816Z,8.91
2022-11-12T05:22:06.564Z,8.91
2022-11-12T05:24:58.365Z,8.94
2022-11-12T05:27:49.563Z,9.00
2022-11-12T05:30:41.045Z,9.01
2022-11-12T05:33:32.644Z,9.02
2022-11-12T05:36:23.421Z,9.03
2022-11-12T05:39:15.013Z,9.05
2022-11-12T05:42:12.927Z,9.09
2022-11-12T05:44:59.593Z,9.12
2022-11-12T05:47:50.572Z,9.13
2022-11-12T05:51:06.094Z,9.14
2022-11-12T05:53:34.841Z,9.19
2022-11-12T05:56:26.381Z,9.21
2022-11-12T05:59:17.715Z,9.23
2022-11-12T06:02:08.976Z,9.25
2022-11-12T06:05:00.545Z,9.25
2022-11-12T06:07:51.854Z,9.23
2022-11-12T06:10:43.583Z,9.32
2022-11-12T06:13:34.690Z,9.33
2022-11-12T06:16:25.921Z,9.34
2022-11-12T06:19:16.771Z,9.37
2022-11-12T06:22:08.156Z,9.38
2022-11-12T06:24:59.396Z,9.41
2022-11-12T06:27:50.663Z,9.43
2022-11-12T06:30:41.597Z,9.44
2022-11-12T06:33:32.436Z,9.47
2022-11-12T06:36:24.581Z,9.49
2022-11-12T06:39:16.042Z,9.50
2022-11-12T06:42:07.546Z,9.56
2022-11-12T06:44:58.847Z,9.54
2022-11-12T06:47:50.401Z,9.57
2022-11-12T06:50:41.761Z,9.58
2022-11-12T06:53:33.582Z,9.59
2022-11-12T06:56:24.828Z,9.60
2022-11-12T06:59:16.215Z,9.62
2022-11-12T07:02:07.878Z,9.65
2022-11-12T07:04:59.121Z,9.66
2022-11-12T07:07:50.676Z,9.68
2022-11-12T07:10:41.696Z,9.73
2022-11-12T07:13:34.599Z,9.76
2022-11-12T07:16:25.954Z,9.74
2022-11-12T07:19:17.480Z,9.79
2022-11-12T07:22:08.496Z,9.84
2022-11-12T07:24:59.904Z,9.84
2022-11-12T07:27:50.916Z,9.81
2022-11-12T07:30:42.221Z,9.85
2022-11-12T07:33:34.449Z,9.89
2022-11-12T07:36:26.252Z,9.90
2022-11-12T07:39:17.765Z,9.91
2022-11-12T07:42:09.450Z,9.92
2022-11-12T07:45:01.139Z,9.92
2022-11-12T07:47:52.584Z,10.00
2022-11-12T07:50:43.758Z,10.05
2022-11-12T07:53:35.563Z,10.06
2022-11-12T07:56:28.486Z,10.07
2022-11-12T07:59:19.617Z,10.12
2022-11-12T08:02:12.213Z,10.17
2022-11-12T08:05:07.189Z,10.22
2022-11-12T08:07:57.865Z,10.20
2022-11-12T08:10:49.210Z,10.14
2022-11-12T08:13:40.591Z,10.12
2022-11-12T08:16:32.792Z,10.12
2022-11-12T08:19:24.381Z,10.13
2022-11-12T08:22:15.608Z,10.12
2022-11-12T08:25:08.289Z,10.16
2022-11-12T08:28:00.390Z,10.17
2022-11-12T08:30:51.683Z,10.19
2022-11-12T08:33:44.095Z,10.15
2022-11-12T08:36:35.533Z,10.13
2022-11-12T08:39:27.317Z,10.10
2022-11-12T08:42:18.930Z,10.13
2022-11-12T08:45:12.289Z,10.14
2022-11-12T08:48:05.334Z,10.13
2022-11-12T08:50:57.104Z,10.18
2022-11-12T08:53:48.492Z,10.16
2022-11-12T08:56:40.059Z,10.18
2022-11-12T08:59:30.952Z,10.18
2022-11-12T09:02:22.717Z,10.17
2022-11-12T09:05:14.145Z,10.14
2022-11-12T09:08:07.669Z,10.09
2022-11-12T09:11:00.458Z,10.08
2022-11-12T09:13:53.160Z,10.07
2022-11-12T09:16:44.508Z,10.06
2022-11-12T09:19:40.130Z,10.04
2022-11-12T09:22:29.782Z,10.05
2022-11-12T09:25:20.655Z,10.06
2022-11-12T09:28:13.491Z,10.06
2022-11-12T09:31:04.846Z,10.09
2022-11-12T09:33:55.871Z,10.08
2022-11-12T09:36:47.157Z,10.10
2022-11-12T09:39:41.680Z,10.09
2022-11-12T09:42:37.913Z,10.09
2022-11-12T09:45:32.942Z,10.17
2022-11-12T09:48:28.110Z,10.18
2022-11-12T09:51:23.250Z,10.19
2022-11-12T09:54:25.635Z,10.20
2022-11-12T09:57:17.173Z,10.21
2022-11-12T10:03:02.228Z,10.55
2022-11-12T10:05:56.351Z,10.49
2022-11-12T10:08:52.594Z,10.42
2022-11-12T10:12:24.649Z,10.40
2022-11-12T10:15:56.394Z,10.36
2022-11-12T10:18:54.718Z,10.39
2022-11-12T10:21:49.666Z,10.41
2022-11-12T10:24:43.333Z,10.45
2022-11-12T10:27:38.457Z,10.45
2022-11-12T10:30:29.742Z,10.48
2022-11-12T10:33:20.756Z,10.45
2022-11-12T10:36:26.352Z,10.47
2022-11-12T10:39:35.682Z,10.50
2022-11-12T10:42:27.333Z,10.52
2022-11-12T10:45:23.980Z,10.54
2022-11-12T10:48:27.950Z,10.52
2022-11-12T10:51:27.810Z,10.55
2022-11-12T10:57:27.110Z,10.67
2022-11-12T11:00:24.175Z,10.48
2022-11-12T11:03:22.997Z,10.46
2022-11-12T11:06:23.769Z,10.42
2022-11-12T11:09:21.715Z,10.39
2022-11-12T11:12:24.872Z,10.33
2022-11-12T11:15:24.642Z,10.29
2022-11-12T11:18:16.692Z,10.25
2022-11-12T11:21:16.855Z,10.24
2022-11-12T11:24:18.334Z,10.22
2022-11-12T11:27:15.056Z,10.23
2022-11-12T11:30:17.806Z,10.25
2022-11-12T11:36:46.514Z,10.38
2022-11-12T11:39:42.420Z,10.19
2022-11-12T11:42:45.156Z,10.16
2022-11-12T11:45:40.828Z,10.18
2022-11-12T11:48:36.055Z,10.18
2022-11-12T11:51:44.730Z,10.20
2022-11-12T11:54:45.721Z,10.20
2022-11-12T11:57:39.982Z,10.19
2022-11-12T12:00:34.447Z,10.18
2022-11-12T12:03:32.828Z,10.17
2022-11-12T12:06:25.918Z,10.17
2022-11-12T12:09:30.831Z,10.13
2022-11-12T12:12:29.056Z,10.13
2022-11-12T12:15:34.534Z,10.11
2022-11-12T12:18:31.629Z,10.11
2022-11-12T12:21:26.135Z,10.13
2022-11-12T12:24:21.548Z,10.12
2022-11-12T12:27:15.841Z,10.11
2022-11-12T12:30:13.301Z,10.07
2022-11-12T12:33:07.323Z,10.04
2022-11-12T12:36:01.903Z,10.08
2022-11-12T12:38:55.972Z,10.09
2022-11-12T12:41:51.942Z,10.08
2022-11-12T12:47:29.295Z,10.32
2022-11-12T12:50:23.094Z,10.22
2022-11-12T12:53:22.872Z,10.28
2022-11-12T12:56:46.694Z,10.34
2022-11-12T12:59:38.136Z,10.38
2022-11-12T13:02:32.190Z,10.35
2022-11-12T13:05:34.355Z,10.37
2022-11-12T13:08:28.333Z,10.40
2022-11-12T13:12:05.808Z,10.43
2022-11-12T13:15:15.570Z,10.41
2022-11-12T13:18:14.367Z,10.42
2022-11-12T13:21:14.129Z,10.39
2022-11-12T13:24:11.991Z,10.39
2022-11-12T13:27:03.109Z,10.33
2022-11-12T13:29:54.546Z,10.35
2022-11-12T13:32:48.488Z,10.29
2022-11-12T13:35:40.700Z,10.30
2022-11-12T13:38:33.192Z,10.27
2022-11-12T13:41:45.572Z,10.27
2022-11-12T13:44:37.951Z,10.32
2022-11-12T13:47:29.984Z,10.35
2022-11-12T13:50:24.108Z,10.39
2022-11-12T13:53:19.476Z,10.42
2022-11-12T13:56:13.498Z,10.44
2022-11-12T14:01:58.212Z,10.62
2022-11-12T14:04:49.709Z,10.52
2022-11-12T14:07:45.306Z,10.57
2022-11-12T14:10:46.096Z,10.58
2022-11-12T14:13:48.918Z,10.59
2022-11-12T14:16:49.797Z,10.54
2022-11-12T14:20:25.628Z,10.53
2022-11-12T14:23:24.393Z,10.50
2022-11-12T14:26:14.576Z,10.50
2022-11-12T14:29:05.651Z,10.51
2022-11-12T14:32:04.283Z,10.52
2022-11-12T14:34:55.375Z,10.53
2022-11-12T14:37:49.817Z,10.54
2022-11-12T14:40:45.895Z,10.58
2022-11-12T14:43:39.945Z,10.58
2022-11-12T14:46:34.015Z,10.58
2022-11-12T14:49:29.718Z,10.64
2022-11-12T14:52:23.288Z,10.68
2022-11-12T14:55:17.995Z,10.71
2022-11-12T14:58:10.869Z,10.80
2022-11-12T15:01:03.607Z,10.86
2022-11-12T15:03:56.417Z,10.89
2022-11-12T15:06:54.868Z,10.93
2022-11-12T15:09:46.162Z,10.99
2022-11-12T15:12:37.608Z,10.97
2022-11-12T15:15:28.913Z,10.95
2022-11-12T15:18:22.378Z,10.94
2022-11-12T15:21:16.611Z,11.01
2022-11-12T15:24:17.961Z,11.03
2022-11-12T15:27:35.666Z,11.01
2022-11-12T15:30:30.212Z,11.07
2022-11-12T15:33:24.459Z,11.09
2022-11-12T15:36:19.972Z,11.16
2022-11-12T15:39:15.932Z,11.20
2022-11-12T15:42:10.108Z,11.26
2022-11-12T15:45:03.358Z,11.28
2022-11-12T15:47:54.362Z,11.32
2022-11-12T15:50:48.354Z,11.26
2022-11-12T15:53:39.318Z,11.32
2022-11-12T15:56:31.110Z,11.33
2022-11-12T15:59:22.454Z,11.38
2022-11-12T16:02:15.830Z,11.47
2022-11-12T16:05:12.051Z,11.55
2022-11-12T16:08:03.182Z,11.58
2022-11-12T16:10:55.397Z,11.60
2022-11-12T16:13:46.683Z,11.60
2022-11-12T16:16:39.890Z,11.60
2022-11-12T16:19:33.091Z,11.56
2022-11-12T16:22:24.709Z,11.55
2022-11-12T16:25:16.453Z,11.55
2022-11-12T16:28:12.572Z,11.52
2022-11-12T16:31:03.821Z,11.49
2022-11-12T16:33:55.257Z,11.46
2022-11-12T16:36:48.224Z,11.52
2022-11-12T16:39:39.506Z,11.55
2022-11-12T16:42:30.950Z,11.60
2022-11-12T16:45:23.697Z,11.60
2022-11-12T16:48:19.039Z,11.65
2022-11-12T16:51:16.773Z,11.61
2022-11-12T16:54:09.427Z,11.58
2022-11-12T16:57:00.996Z,11.50
2022-11-12T16:59:52.842Z,11.50
2022-11-12T17:02:48.183Z,11.48
2022-11-12T17:05:38.507Z,11.43
2022-11-12T17:08:33.708Z,11.36
2022-11-12T17:11:22.794Z,11.40
2022-11-12T17:14:14.444Z,11.40
2022-11-12T17:17:05.920Z,11.49
2022-11-12T17:19:57.009Z,11.45
2022-11-12T17:22:48.460Z,11.50
2022-11-12T17:25:39.178Z,11.52
2022-11-12T17:28:31.923Z,11.51
2022-11-12T17:31:24.596Z,11.49
2022-11-12T17:34:15.792Z,11.52
2022-11-12T17:37:06.946Z,11.47
2022-11-12T17:39:58.866Z,11.42
2022-11-12T17:42:49.952Z,11.46
2022-11-12T17:45:42.671Z,11.43
2022-11-12T17:48:35.272Z,11.37
2022-11-12T17:51:28.055Z,11.32
2022-11-12T17:54:19.252Z,11.24
2022-11-12T17:57:10.517Z,11.19
2022-11-12T18:00:01.632Z,11.15
2022-11-12T18:02:53.072Z,11.11
2022-11-12T18:05:44.250Z,11.06
2022-11-12T18:08:35.722Z,11.02
2022-11-12T18:11:27.953Z,11.06
2022-11-12T18:14:19.658Z,11.07
2022-11-12T18:17:10.760Z,11.08
2022-11-12T18:20:01.651Z,11.12
2022-11-12T18:22:52.712Z,11.09
2022-11-12T18:25:43.987Z,11.05
2022-11-12T18:28:35.498Z,11.07
2022-11-12T18:31:28.419Z,11.02
2022-11-12T18:34:19.632Z,10.95
2022-11-12T18:37:11.383Z,10.97
2022-11-12T18:40:02.576Z,10.99
2022-11-12T18:42:54.672Z,10.98
2022-11-12T18:45:45.680Z,10.87
2022-11-12T18:48:38.587Z,10.82
2022-11-12T18:51:30.040Z,10.81
2022-11-12T18:54:23.416Z,10.78
2022-11-12T18:57:14.839Z,10.83
2022-11-12T19:00:07.587Z,10.89
2022-11-12T19:02:58.585Z,10.93
2022-11-12T19:05:50.044Z,10.99
2022-11-12T19:08:41.798Z,11.10
2022-11-12T19:11:33.163Z,11.10
2022-11-12T19:14:25.826Z,11.09
2022-11-12T19:17:17.400Z,11.13
2022-11-12T19:20:11.338Z,11.16
2022-11-12T19:23:02.544Z,11.16
2022-11-12T19:25:53.418Z,11.13
2022-11-12T19:28:45.540Z,11.15
2022-11-12T19:31:36.943Z,11.16
2022-11-12T19:34:28.611Z,11.18
2022-11-12T19:37:32.909Z,11.23
2022-11-12T19:40:14.185Z,11.23
2022-11-12T19:43:06.181Z,11.21
2022-11-12T19:45:58.005Z,11.19
2022-11-12T19:48:49.546Z,11.19
2022-11-12T19:51:40.855Z,11.20
2022-11-12T19:54:32.346Z,11.20
2022-11-12T19:57:23.947Z,11.10
2022-11-12T20:00:18.428Z,11.08
2022-11-12T20:03:10.447Z,11.04
2022-11-12T20:06:04.439Z,10.97
2022-11-12T20:08:57.656Z,10.91
2022-11-12T20:11:50.734Z,10.89
2022-11-12T20:14:42.200Z,10.84
2022-11-12T20:17:35.593Z,10.89
2022-11-12T20:20:26.760Z,10.84
2022-11-12T20:23:18.692Z,10.75
2022-11-12T20:26:12.596Z,10.68
2022-11-12T20:29:03.590Z,10.65
2022-11-12T20:31:55.060Z,10.61
2022-11-12T20:34:46.344Z,10.68
2022-11-12T20:37:37.981Z,10.67
2022-11-12T20:40:29.376Z,10.71
2022-11-12T20:43:22.299Z,10.71
2022-11-12T20:46:14.912Z,10.69
2022-11-12T20:49:08.038Z,10.64
2022-11-12T20:51:59.484Z,10.57
2022-11-12T20:54:50.648Z,10.54
2022-11-12T20:57:44.458Z,10.46
2022-11-12T21:00:35.722Z,10.47
2022-11-12T21:03:26.961Z,10.42
2022-11-12T21:06:20.372Z,10.41
2022-11-12T21:09:12.064Z,10.36
2022-11-12T21:12:05.842Z,10.32
2022-11-12T21:14:59.574Z,10.32
2022-11-12T21:17:53.713Z,10.31
2022-11-12T21:20:45.029Z,10.46
2022-11-12T21:23:37.355Z,10.48
2022-11-12T21:26:28.713Z,10.47
2022-11-12T21:29:20.104Z,10.47
2022-11-12T21:32:11.721Z,10.43
2022-11-12T21:35:03.824Z,10.35
2022-11-12T21:37:54.960Z,10.34
2022-11-12T21:40:46.597Z,10.29
2022-11-12T21:43:39.904Z,10.27
2022-11-12T21:46:32.846Z,10.19
2022-11-12T21:49:24.331Z,10.25
2022-11-12T21:52:15.759Z,10.18
2022-11-12T21:55:08.850Z,10.22
2022-11-12T21:58:01.188Z,10.18
2022-11-12T22:00:52.385Z,10.09
2022-11-12T22:03:43.674Z,10.04
2022-11-12T22:06:37.615Z,10.09
2022-11-12T22:09:29.295Z,10.09
2022-11-12T22:12:20.430Z,10.04
2022-11-12T22:15:12.594Z,10.11
2022-11-12T22:18:03.612Z,10.09
2022-11-12T22:21:02.190Z,10.11
2022-11-12T22:23:53.882Z,10.11
2022-11-12T22:26:45.329Z,10.14
2022-11-12T22:29:36.428Z,10.07
2022-11-12T22:32:27.605Z,10.03
2022-11-12T22:35:19.331Z,10.02
2022-11-12T22:38:10.901Z,10.09
2022-11-12T22:41:05.503Z,10.07
2022-11-12T22:43:57.732Z,10.06
2022-11-12T22:46:48.872Z,10.03
2022-11-12T22:49:40.387Z,10.01
2022-11-12T22:52:31.782Z,10.06
2022-11-12T22:55:23.581Z,10.04
2022-11-12T22:58:15.020Z,9.99
2022-11-12T23:01:07.611Z,10.09
2022-11-12T23:04:00.849Z,10.07
2022-11-12T23:06:52.146Z,10.00
2022-11-12T23:09:43.850Z,10.05
2022-11-12T23:12:35.362Z,10.01
2022-11-12T23:15:29.073Z,10.05
2022-11-12T23:18:20.724Z,10.04
2022-11-12T23:21:14.486Z,9.99
2022-11-12T23:24:07.097Z,10.05
2022-11-12T23:26:58.421Z,10.02
2022-11-12T23:29:49.483Z,10.03
2022-11-12T23:32:40.942Z,9.98
2022-11-12T23:35:32.235Z,9.95
2022-11-12T23:38:24.051Z,9.91
2022-11-12T23:41:17.553Z,9.84
2022-11-12T23:44:10.011Z,9.78
2022-11-12T23:47:01.126Z,9.74
2022-11-12T23:49:52.797Z,9.75
2022-11-12T23:52:44.146Z,9.79
2022-11-12T23:55:38.420Z,9.77
2022-11-12T23:58:28.952Z,9.77
